Time;durP1;ratioP1;P1;durP2;ratioP2;P2;SDS_P1;SDS_P2;PMS_P1;PMS_P2;Temp;Humidity;BMP_temperature;BMP_pressure;BME280_temperature;BME280_humidity;BME280_pressure;Samples;Min_cycle;Max_cycle;Signal;HPM_P1;HPM_P2
2023/08/08 00:02:24;;;;;;;1.70;1.50;;;23.50;95.50;;;;;;4954275;29;20471;-91
2023/08/08 00:04:51;;;;;;;1.40;1.30;;;23.50;95.50;;;;;;4953845;29;20457;-92
2023/08/08 00:07:30;;;;;;;1.60;1.40;;;23.50;95.50;;;;;;4953871;29;20514;-91
2023/08/08 00:10:01;;;;;;;1.77;1.27;;;23.50;95.80;;;;;;4954120;29;20933;-92
2023/08/08 00:12:50;;;;;;;1.30;1.10;;;23.50;95.40;;;;;;4934249;29;20866;-92
2023/08/08 00:15:39;;;;;;;1.27;1.17;;;23.40;95.30;;;;;;4924850;29;20492;-92
2023/08/08 00:18:07;;;;;;;1.33;1.20;;;23.50;95.20;;;;;;4917743;29;20452;-92
2023/08/08 00:20:40;;;;;;;1.53;1.43;;;23.40;95.70;;;;;;4969668;23;20548;-92
2023/08/08 00:23:11;;;;;;;1.40;1.30;;;23.50;95.30;;;;;;4974903;29;20494;-92
2023/08/08 00:25:39;;;;;;;1.40;1.30;;;23.50;95.30;;;;;;4957510;29;20465;-92
2023/08/08 00:28:11;;;;;;;1.30;1.20;;;23.40;95.30;;;;;;4988923;23;20516;-92
2023/08/08 00:30:40;;;;;;;1.20;1.10;;;23.40;95.30;;;;;;4993544;28;20449;-92
2023/08/08 00:33:07;;;;;;;1.60;1.40;;;23.50;95.30;;;;;;4993559;28;20446;-92
2023/08/08 00:35:47;;;;;;;1.40;1.10;;;23.50;95.30;;;;;;4992427;28;20488;-92
2023/08/08 00:38:18;;;;;;;1.53;1.30;;;23.40;95.30;;;;;;4978525;28;20447;-92
2023/08/08 00:40:46;;;;;;;2.63;1.60;;;23.40;95.40;;;;;;4993543;28;20452;-92
2023/08/08 00:43:18;;;;;;;1.23;1.10;;;23.40;95.40;;;;;;4979637;23;20497;-91
2023/08/08 00:45:47;;;;;;;2.30;1.20;;;23.40;95.40;;;;;;4975666;28;20490;-92
2023/08/08 00:48:19;;;;;;;1.33;1.13;;;23.40;95.40;;;;;;4975424;29;20450;-93
2023/08/08 00:50:52;;;;;;;1.30;1.10;;;23.40;95.40;;;;;;4976276;28;20782;-92
2023/08/08 00:53:23;;;;;;;1.43;1.33;;;23.40;95.50;;;;;;4974016;29;20410;-91
2023/08/08 00:55:54;;;;;;;1.50;1.10;;;23.50;95.50;;;;;;4973748;29;20482;-92
2023/08/08 00:58:25;;;;;;;1.27;1.00;;;23.40;95.40;;;;;;4974747;29;20529;-92
2023/08/08 01:01:06;;;;;;;1.60;1.20;;;23.50;95.50;;;;;;4973635;29;20922;-92
2023/08/08 01:03:35;;;;;;;1.20;1.00;;;23.40;95.50;;;;;;4974033;28;20469;-92
2023/08/08 01:06:18;;;;;;;1.37;1.27;;;23.40;95.40;;;;;;5023363;23;20487;-92
2023/08/08 01:08:49;;;;;;;1.30;1.20;;;23.40;95.80;;;;;;4955278;29;20458;-92
2023/08/08 01:16:34;;;;;;;1.17;1.00;;;23.40;95.60;;;;;;4987680;23;20497;-92
2023/08/08 01:19:04;;;;;;;1.30;1.00;;;23.40;95.60;;;;;;4971860;29;20472;-92
2023/08/08 01:21:42;;;;;;;1.40;1.30;;;23.40;95.50;;;;;;4974292;29;20446;-92
2023/08/08 01:24:27;;;;;;;1.93;1.30;;;23.50;95.60;;;;;;4974416;29;20453;-92
2023/08/08 01:27:01;;;;;;;1.50;1.00;;;23.40;95.50;;;;;;4980334;23;20479;-92
2023/08/08 01:29:29;;;;;;;1.77;1.10;;;23.40;95.50;;;;;;4954801;29;20455;-94
2023/08/08 01:32:01;;;;;;;1.13;1.00;;;23.40;95.50;;;;;;4953611;29;20521;-93
2023/08/08 01:34:29;;;;;;;1.23;1.13;;;23.40;95.40;;;;;;4955544;29;20438;-92
2023/08/08 01:40:20;;;;;;;1.30;1.07;;;23.40;95.50;;;;;;4956827;29;20458;-92
2023/08/08 01:42:57;;;;;;;2.17;1.30;;;23.40;95.50;;;;;;4955352;29;20435;-92
2023/08/08 01:45:27;;;;;;;1.83;1.20;;;23.40;95.60;;;;;;4937290;29;20439;-92
2023/08/08 01:48:04;;;;;;;1.30;0.90;;;23.40;95.50;;;;;;4935244;29;20455;-92
2023/08/08 01:50:32;;;;;;;1.17;0.90;;;23.40;95.60;;;;;;4934749;29;20446;-92
2023/08/08 01:52:59;;;;;;;1.33;1.20;;;23.40;95.40;;;;;;4935500;29;20448;-92
2023/08/08 01:55:44;;;;;;;1.40;1.20;;;23.40;95.70;;;;;;4935000;29;20491;-93
2023/08/08 01:58:12;;;;;;;1.20;1.10;;;23.40;95.50;;;;;;4933810;29;20447;-93
2023/08/08 02:00:43;;;;;;;1.20;0.97;;;23.40;95.50;;;;;;4976647;23;21023;-93
2023/08/08 02:03:16;;;;;;;2.00;1.07;;;23.40;95.90;;;;;;4955669;29;20501;-92
2023/08/08 02:05:50;;;;;;;1.30;0.90;;;23.40;95.50;;;;;;4972980;29;20468;-92
2023/08/08 02:08:36;;;;;;;1.40;1.20;;;23.40;95.40;;;;;;4954950;29;20804;-93
2023/08/08 02:11:25;;;;;;;1.30;1.07;;;23.40;95.60;;;;;;4971300;29;20446;-92
2023/08/08 02:14:00;;;;;;;1.10;1.00;;;23.40;95.50;;;;;;4970762;28;20466;-92
2023/08/08 02:16:34;;;;;;;1.30;1.00;;;23.40;95.50;;;;;;4973015;29;20500;-93
2023/08/08 02:19:04;;;;;;;1.10;1.00;;;23.40;95.40;;;;;;4972457;29;20421;-92
2023/08/08 02:21:31;;;;;;;1.10;1.00;;;23.40;95.40;;;;;;4974036;28;20449;-92
2023/08/08 02:23:58;;;;;;;1.20;1.00;;;23.40;95.50;;;;;;4975840;29;20467;-92
2023/08/08 02:26:27;;;;;;;2.10;1.30;;;23.40;95.50;;;;;;4972005;29;20514;-92
2023/08/08 02:29:03;;;;;;;1.40;1.00;;;23.40;95.50;;;;;;4969853;29;20457;-92
2023/08/08 02:31:32;;;;;;;1.20;1.07;;;23.40;95.60;;;;;;4967920;29;20440;-92
2023/08/08 02:34:10;;;;;;;1.20;1.00;;;23.40;95.60;;;;;;4951263;29;20544;-92
2023/08/08 02:36:38;;;;;;;1.47;1.30;;;23.40;95.60;;;;;;4968865;29;20498;-92
2023/08/08 02:39:15;;;;;;;1.40;0.90;;;23.40;96.00;;;;;;4967537;29;20500;-92
2023/08/08 02:41:50;;;;;;;1.40;1.00;;;23.40;95.60;;;;;;4968014;29;20477;-92
2023/08/08 02:44:22;;;;;;;1.37;1.27;;;23.40;96.00;;;;;;4968446;28;20532;-92
2023/08/08 02:46:56;;;;;;;1.40;1.00;;;23.40;95.60;;;;;;4966840;29;20492;-92
2023/08/08 02:49:27;;;;;;;1.10;0.80;;;23.40;95.50;;;;;;4967649;29;20445;-92
2023/08/08 02:51:55;;;;;;;1.30;1.03;;;23.40;95.50;;;;;;4967761;29;20453;-92
2023/08/08 02:54:25;;;;;;;1.70;1.10;;;23.40;95.50;;;;;;4967391;29;20474;-92
2023/08/08 02:57:31;;;;;;;1.80;1.03;;;23.40;95.50;;;;;;4967043;29;20482;-93
2023/08/08 03:00:08;;;;;;;1.27;1.10;;;23.40;95.50;;;;;;4966660;28;21028;-92
2023/08/08 03:02:57;;;;;;;2.17;1.17;;;23.30;95.80;;;;;;4964972;29;20540;-92
2023/08/08 03:05:30;;;;;;;1.30;1.17;;;23.30;95.40;;;;;;4968207;29;20516;-92
2023/08/08 03:08:00;;;;;;;1.60;1.13;;;23.30;95.50;;;;;;4967014;29;20443;-92
2023/08/08 03:10:27;;;;;;;1.40;1.30;;;23.40;95.60;;;;;;4968457;29;20444;-93
2023/08/08 03:12:57;;;;;;;5.53;1.37;;;23.30;95.50;;;;;;4968779;28;20449;-93
2023/08/08 03:15:37;;;;;;;1.83;1.03;;;23.30;95.50;;;;;;4970006;29;20532;-93
2023/08/08 03:21:09;;;;;;;1.30;1.20;;;23.40;95.70;;;;;;4969132;29;20465;-91
2023/08/08 03:23:39;;;;;;;2.10;1.33;;;23.40;95.60;;;;;;4968683;29;20422;-92
2023/08/08 03:26:07;;;;;;;1.17;1.07;;;23.40;95.60;;;;;;4980125;23;20482;-92
2023/08/08 03:28:40;;;;;;;1.53;1.43;;;23.40;95.60;;;;;;4951589;29;20445;-92
2023/08/08 03:31:10;;;;;;;1.10;0.90;;;23.40;95.60;;;;;;5033347;23;20493;-91
2023/08/08 03:33:56;;;;;;;1.80;1.50;;;23.30;95.50;;;;;;4975740;23;20505;-92
2023/08/08 03:36:23;;;;;;;1.20;1.00;;;23.40;95.50;;;;;;4967946;29;20479;-92
2023/08/08 03:41:32;;;;;;;1.10;0.93;;;23.40;95.70;;;;;;4908908;29;20433;-91
2023/08/08 03:44:02;;;;;;;1.10;1.00;;;23.30;95.60;;;;;;4968588;28;20489;-91
2023/08/08 03:46:30;;;;;;;1.10;0.93;;;23.40;95.60;;;;;;4969698;29;20472;-91
2023/08/08 03:48:59;;;;;;;1.43;1.20;;;23.40;95.50;;;;;;4969537;29;20490;-92
2023/08/08 03:51:33;;;;;;;1.83;1.20;;;23.30;95.40;;;;;;4969278;29;20454;-91
2023/08/08 03:54:04;;;;;;;1.10;0.93;;;23.30;95.40;;;;;;4970470;29;20436;-92
2023/08/08 03:56:32;;;;;;;1.20;1.10;;;23.30;95.50;;;;;;4970650;29;20508;-90
2023/08/08 03:59:37;;;;;;;1.20;1.00;;;23.30;95.40;;;;;;4967980;29;20445;-90
2023/08/08 04:02:06;;;;;;;1.37;1.27;;;23.30;95.50;;;;;;4971589;29;20462;-92
2023/08/08 04:04:34;;;;;;;1.40;1.07;;;23.30;95.40;;;;;;4968863;29;20820;-91
2023/08/08 04:07:04;;;;;;;1.20;1.10;;;23.30;95.50;;;;;;4967874;29;20422;-91
2023/08/08 04:09:43;;;;;;;1.17;1.07;;;23.30;95.50;;;;;;4953773;29;20514;-91
2023/08/08 04:12:11;;;;;;;1.10;1.00;;;23.30;95.50;;;;;;4970261;29;20426;-91
2023/08/08 04:14:40;;;;;;;1.10;1.00;;;23.50;95.60;;;;;;4967786;28;20494;-91
2023/08/08 04:17:16;;;;;;;1.43;1.30;;;23.30;95.40;;;;;;4968100;29;20837;-92
2023/08/08 04:19:43;;;;;;;1.80;1.20;;;23.30;95.50;;;;;;4970550;29;20442;-91
2023/08/08 04:22:12;;;;;;;1.30;1.10;;;23.50;95.60;;;;;;4969968;29;20481;-93
2023/08/08 04:24:39;;;;;;;1.20;0.90;;;23.30;95.50;;;;;;4977473;23;20489;-91
2023/08/08 04:27:08;;;;;;;1.10;1.00;;;23.30;95.50;;;;;;4969789;29;20445;-92
2023/08/08 04:29:38;;;;;;;1.23;1.00;;;23.30;95.50;;;;;;4968277;29;20545;-91
2023/08/08 04:32:06;;;;;;;1.67;1.30;;;23.30;95.50;;;;;;4967359;29;20459;-91
2023/08/08 04:34:40;;;;;;;1.20;1.10;;;23.30;95.50;;;;;;4968267;29;20502;-92
2023/08/08 04:37:13;;;;;;;1.20;1.00;;;23.30;95.60;;;;;;4969021;29;20482;-92
2023/08/08 04:39:39;;;;;;;1.93;1.60;;;23.30;95.60;;;;;;4967891;29;20523;-92
2023/08/08 04:42:06;;;;;;;1.83;1.57;;;23.40;95.60;;;;;;4958282;29;20449;-94
2023/08/08 04:44:33;;;;;;;3.77;2.13;;;23.30;95.20;;;;;;4956086;28;20458;-94
2023/08/08 04:47:00;;;;;;;3.93;1.97;;;23.30;95.10;;;;;;4956694;29;20536;-92
2023/08/08 04:49:28;;;;;;;6.30;2.60;;;23.10;94.80;;;;;;4957080;29;20536;-93
2023/08/08 04:51:56;;;;;;;5.60;2.63;;;23.10;94.90;;;;;;4956843;29;20443;-95
2023/08/08 04:54:23;;;;;;;3.20;2.53;;;23.10;95.00;;;;;;4957151;29;20954;-93
2023/08/08 04:56:50;;;;;;;3.53;2.43;;;23.00;95.00;;;;;;4957775;29;20494;-89
2023/08/08 04:59:19;;;;;;;5.13;2.90;;;22.90;94.90;;;;;;4962477;29;20493;-93
2023/08/08 05:01:46;;;;;;;4.47;2.43;;;23.10;95.30;;;;;;4962892;29;20465;-94
2023/08/08 05:04:14;;;;;;;4.17;2.60;;;22.80;95.10;;;;;;4962261;29;20461;-94
2023/08/08 05:06:44;;;;;;;3.10;2.60;;;22.90;95.20;;;;;;4962425;29;20454;-92
2023/08/08 05:09:15;;;;;;;9.53;2.93;;;22.80;95.20;;;;;;4961481;29;20873;-92
2023/08/08 05:11:43;;;;;;;3.10;2.43;;;22.80;95.30;;;;;;4962995;29;20846;-93
2023/08/08 05:14:10;;;;;;;4.83;3.03;;;22.70;95.40;;;;;;4962541;28;20484;-92
2023/08/08 05:16:39;;;;;;;2.80;2.40;;;22.70;95.30;;;;;;4961871;29;20481;-92
2023/08/08 05:19:06;;;;;;;3.07;2.47;;;22.70;95.40;;;;;;4962280;29;20527;-92
2023/08/08 05:21:35;;;;;;;2.50;2.30;;;22.70;95.70;;;;;;4962024;29;20796;-92
2023/08/08 05:24:02;;;;;;;4.63;2.10;;;22.70;95.50;;;;;;4960326;29;20513;-92
2023/08/08 05:26:31;;;;;;;3.83;2.70;;;22.70;95.60;;;;;;4959485;28;21083;-92
2023/08/08 05:28:58;;;;;;;6.23;2.77;;;22.80;95.80;;;;;;4961678;29;20560;-93
2023/08/08 05:31:24;;;;;;;4.27;2.93;;;22.80;96.00;;;;;;4958541;29;20958;-92
2023/08/08 05:33:51;;;;;;;6.53;3.33;;;22.90;96.00;;;;;;4960478;29;20871;-93
2023/08/08 05:36:18;;;;;;;4.37;3.50;;;22.90;96.00;;;;;;4960499;29;20556;-93
2023/08/08 05:38:47;;;;;;;3.37;3.07;;;22.90;96.10;;;;;;4962690;29;20466;-93
2023/08/08 05:41:14;;;;;;;5.40;3.07;;;22.90;96.10;;;;;;4965588;29;20443;-93
2023/08/08 05:43:44;;;;;;;3.70;3.30;;;23.00;96.20;;;;;;4970345;28;20718;-92
2023/08/08 05:46:14;;;;;;;6.30;3.37;;;23.00;96.20;;;;;;4971159;29;20444;-93
2023/08/08 05:48:40;;;;;;;6.00;3.00;;;23.10;96.20;;;;;;4965234;29;20616;-93
2023/08/08 05:51:07;;;;;;;5.37;2.90;;;23.10;96.10;;;;;;4965240;29;20521;-94
2023/08/08 05:53:34;;;;;;;3.77;3.37;;;23.10;96.10;;;;;;4962449;29;20440;-90
2023/08/08 05:56:01;;;;;;;7.40;3.43;;;23.10;96.10;;;;;;4963738;28;20568;-90
2023/08/08 05:58:28;;;;;;;3.37;3.07;;;23.10;96.10;;;;;;4965533;29;20484;-92
2023/08/08 06:01:00;;;;;;;4.13;2.80;;;23.10;96.00;;;;;;4969799;29;20453;-90
2023/08/08 06:03:30;;;;;;;4.03;3.47;;;23.20;96.10;;;;;;4967041;29;20985;-93
2023/08/08 06:05:57;;;;;;;5.30;3.23;;;23.20;96.10;;;;;;4961377;29;20446;-94
2023/08/08 06:08:24;;;;;;;2.70;2.50;;;23.20;96.20;;;;;;4961861;29;20503;-92
2023/08/08 06:10:51;;;;;;;3.40;3.10;;;23.10;96.10;;;;;;4962494;29;20956;-94
2023/08/08 06:13:18;;;;;;;3.17;2.70;;;23.20;96.20;;;;;;4963174;29;20482;-92
2023/08/08 06:15:45;;;;;;;2.70;2.27;;;23.10;96.30;;;;;;4966035;29;20465;-95
2023/08/08 06:18:13;;;;;;;4.17;2.67;;;23.10;96.20;;;;;;4960758;29;20555;-90
2023/08/08 06:20:40;;;;;;;4.67;2.80;;;23.10;96.20;;;;;;4960916;29;20541;-94
2023/08/08 06:23:07;;;;;;;4.57;2.40;;;23.10;96.20;;;;;;4962882;29;20802;-93
2023/08/08 06:25:34;;;;;;;8.27;3.50;;;23.10;96.20;;;;;;4961071;28;20508;-92
2023/08/08 06:28:01;;;;;;;3.27;2.57;;;23.20;96.20;;;;;;4962268;29;20501;-93
2023/08/08 06:30:28;;;;;;;3.90;3.60;;;23.20;96.20;;;;;;4961177;29;20441;-94
2023/08/08 06:32:55;;;;;;;7.60;3.63;;;23.20;96.10;;;;;;4963819;29;20510;-91
2023/08/08 06:35:23;;;;;;;6.53;3.60;;;23.10;96.00;;;;;;4966537;29;20451;-91
2023/08/08 06:37:51;;;;;;;5.30;3.00;;;23.20;96.20;;;;;;4950753;29;20540;-93
2023/08/08 06:40:18;;;;;;;4.27;3.33;;;23.20;96.20;;;;;;4967950;29;20485;-92
2023/08/08 06:42:45;;;;;;;7.33;3.17;;;23.20;96.20;;;;;;4967765;29;20470;-90
2023/08/08 06:45:12;;;;;;;4.80;3.53;;;23.30;96.30;;;;;;4968167;29;20532;-90
2023/08/08 06:47:39;;;;;;;9.90;3.47;;;23.20;96.40;;;;;;4968169;29;20468;-93
2023/08/08 06:50:09;;;;;;;5.43;3.37;;;23.30;96.40;;;;;;4968594;29;20469;-89
2023/08/08 06:52:38;;;;;;;3.60;3.30;;;23.30;96.50;;;;;;4968685;29;20945;-89
2023/08/08 06:55:06;;;;;;;5.17;3.30;;;23.30;96.50;;;;;;4967149;29;20469;-90
2023/08/08 06:57:34;;;;;;;4.43;2.83;;;23.30;96.40;;;;;;4966886;29;20521;-91
2023/08/08 07:00:04;;;;;;;4.37;3.57;;;23.30;96.40;;;;;;4966138;29;20449;-91
2023/08/08 07:02:31;;;;;;;3.23;2.77;;;23.30;96.40;;;;;;4966109;29;20453;-92
2023/08/08 07:04:58;;;;;;;3.13;2.93;;;23.30;96.40;;;;;;4965154;29;20540;-89
2023/08/08 07:07:25;;;;;;;3.77;3.00;;;23.30;96.50;;;;;;4965251;28;20466;-88
2023/08/08 07:09:53;;;;;;;6.53;3.77;;;23.30;96.50;;;;;;4964960;29;20533;-89
2023/08/08 07:12:21;;;;;;;7.87;3.53;;;23.30;96.50;;;;;;4951665;29;20505;-94
2023/08/08 07:14:49;;;;;;;3.60;2.73;;;23.30;96.50;;;;;;4970480;28;20446;-94
2023/08/08 07:17:24;;;;;;;5.63;2.80;;;23.30;96.50;;;;;;4969461;29;20488;-94
2023/08/08 07:19:51;;;;;;;3.00;2.80;;;23.30;96.60;;;;;;4969392;29;20440;-94
2023/08/08 07:22:22;;;;;;;3.10;2.70;;;23.30;96.40;;;;;;4971088;29;20464;-95
2023/08/08 07:24:49;;;;;;;3.97;3.10;;;23.40;96.50;;;;;;4970272;28;20539;-90
2023/08/08 07:27:17;;;;;;;2.40;2.17;;;23.30;96.90;;;;;;4958234;29;20453;-91
2023/08/08 07:29:44;;;;;;;3.20;2.90;;;23.30;96.50;;;;;;4957900;29;20540;-91
2023/08/08 07:32:11;;;;;;;9.43;3.03;;;23.40;96.60;;;;;;4958171;29;20959;-93
2023/08/08 07:34:38;;;;;;;3.53;2.57;;;23.40;96.50;;;;;;4958633;29;20484;-90
2023/08/08 07:37:04;;;;;;;4.13;2.50;;;23.40;96.50;;;;;;4957425;29;20495;-89
2023/08/08 07:39:31;;;;;;;3.43;3.10;;;23.50;96.90;;;;;;4957309;29;20546;-91
2023/08/08 07:41:58;;;;;;;3.27;2.90;;;23.40;96.50;;;;;;4957840;29;20503;-89
2023/08/08 07:44:26;;;;;;;5.03;2.70;;;23.40;96.50;;;;;;4957151;29;20483;-91
2023/08/08 07:46:53;;;;;;;6.97;3.10;;;23.40;96.50;;;;;;4957360;29;20500;-90
2023/08/08 07:49:20;;;;;;;3.80;2.90;;;23.40;96.50;;;;;;4957410;29;20442;-92
2023/08/08 07:51:47;;;;;;;3.20;2.60;;;23.60;96.70;;;;;;4957434;29;20454;-90
2023/08/08 07:54:13;;;;;;;4.63;3.10;;;23.40;96.60;;;;;;4957214;29;20456;-91
2023/08/08 07:56:42;;;;;;;4.10;2.93;;;23.40;96.70;;;;;;4957349;29;20484;-91
2023/08/08 07:59:09;;;;;;;2.87;2.57;;;23.50;96.80;;;;;;4957296;29;20488;-92
2023/08/08 08:01:38;;;;;;;3.97;2.90;;;23.50;96.80;;;;;;4957369;29;20487;-90
2023/08/08 08:04:05;;;;;;;4.70;3.03;;;23.50;96.80;;;;;;4956993;29;20457;-91
2023/08/08 08:06:32;;;;;;;5.53;3.17;;;23.50;96.90;;;;;;4957146;29;20525;-90
2023/08/08 08:08:59;;;;;;;2.77;2.57;;;23.50;96.80;;;;;;4957316;29;20477;-93
2023/08/08 08:11:26;;;;;;;4.10;2.90;;;23.60;97.00;;;;;;4956989;29;20446;-91
2023/08/08 08:13:53;;;;;;;2.90;2.60;;;23.50;96.80;;;;;;4957003;29;20986;-91
2023/08/08 08:16:19;;;;;;;2.63;2.43;;;23.60;96.90;;;;;;4956837;29;20452;-90
2023/08/08 08:18:48;;;;;;;5.63;2.90;;;23.60;96.90;;;;;;4956977;28;20493;-90
2023/08/08 08:21:17;;;;;;;2.70;2.50;;;23.60;96.90;;;;;;4957198;29;20453;-91
2023/08/08 08:23:44;;;;;;;5.33;3.50;;;23.60;96.90;;;;;;4957060;29;20456;-91
2023/08/08 08:26:10;;;;;;;2.67;2.47;;;23.60;96.90;;;;;;4956707;28;20478;-91
2023/08/08 08:28:37;;;;;;;3.17;2.77;;;23.60;96.80;;;;;;4956942;29;20443;-91
2023/08/08 08:31:05;;;;;;;3.07;2.77;;;23.70;97.00;;;;;;4956665;29;20454;-91
2023/08/08 08:33:32;;;;;;;2.50;2.30;;;23.70;97.00;;;;;;4957007;29;20441;-94
2023/08/08 08:36:00;;;;;;;2.50;2.30;;;23.80;97.10;;;;;;4956905;29;20439;-93
2023/08/08 08:38:27;;;;;;;3.50;2.87;;;23.70;97.00;;;;;;4956910;29;20494;-93
2023/08/08 08:40:57;;;;;;;3.07;2.47;;;23.70;97.10;;;;;;4956672;29;20960;-92
2023/08/08 08:43:24;;;;;;;2.73;2.50;;;23.70;97.00;;;;;;4956677;29;20471;-90
2023/08/08 08:45:53;;;;;;;2.60;2.40;;;23.70;97.10;;;;;;4956514;29;20448;-92
2023/08/08 08:48:22;;;;;;;3.63;3.30;;;23.70;96.90;;;;;;4956508;29;20457;-93
2023/08/08 08:50:49;;;;;;;3.30;2.43;;;23.80;97.00;;;;;;4956681;29;20445;-90
2023/08/08 08:53:18;;;;;;;2.90;2.70;;;23.70;97.10;;;;;;4956435;29;20932;-91
2023/08/08 08:55:46;;;;;;;2.50;2.30;;;23.80;97.00;;;;;;4956616;29;20449;-92
2023/08/08 08:58:16;;;;;;;2.50;2.30;;;23.80;97.00;;;;;;4956096;29;20497;-91
2023/08/08 09:00:45;;;;;;;2.73;2.37;;;23.80;97.10;;;;;;4956580;29;20441;-90
2023/08/08 09:03:12;;;;;;;3.60;2.30;;;23.80;97.00;;;;;;4955968;29;20968;-90
2023/08/08 09:05:41;;;;;;;2.60;2.40;;;23.80;97.00;;;;;;4956469;29;20442;-90
2023/08/08 09:08:09;;;;;;;2.20;2.10;;;23.80;97.00;;;;;;4956504;29;20447;-93
2023/08/08 09:10:37;;;;;;;2.50;2.30;;;23.90;97.10;;;;;;4956016;29;20454;-92
2023/08/08 09:13:04;;;;;;;4.73;2.60;;;23.80;97.00;;;;;;4956242;29;20461;-90
2023/08/08 09:15:32;;;;;;;2.50;2.30;;;23.90;97.00;;;;;;4956168;29;20445;-90
2023/08/08 09:17:59;;;;;;;2.50;2.30;;;23.90;97.00;;;;;;4955863;29;20493;-90
2023/08/08 09:20:28;;;;;;;2.87;2.67;;;23.90;97.00;;;;;;4940337;29;20439;-92
2023/08/08 09:22:55;;;;;;;2.57;2.37;;;23.90;97.00;;;;;;4937239;29;20478;-92
2023/08/08 09:25:23;;;;;;;2.57;2.37;;;23.90;96.90;;;;;;4936490;29;21082;-90
2023/08/08 09:27:52;;;;;;;2.30;1.90;;;23.90;96.90;;;;;;4936909;29;20451;-91
2023/08/08 09:30:19;;;;;;;2.30;2.10;;;23.90;96.80;;;;;;4936131;29;20455;-90
2023/08/08 09:32:46;;;;;;;4.00;2.20;;;23.90;96.90;;;;;;4936944;29;20799;-94
2023/08/08 09:35:13;;;;;;;3.30;2.80;;;23.90;97.00;;;;;;4937251;29;20875;-93
2023/08/08 09:37:40;;;;;;;2.20;2.00;;;23.90;96.60;;;;;;4936807;29;20480;-91
2023/08/08 09:40:11;;;;;;;2.67;2.40;;;23.90;96.90;;;;;;4936757;29;20458;-91
2023/08/08 09:42:37;;;;;;;2.80;2.00;;;23.90;96.90;;;;;;4936416;29;20527;-91
2023/08/08 09:45:09;;;;;;;2.80;2.60;;;23.90;96.80;;;;;;4936852;29;20450;-92
2023/08/08 09:47:40;;;;;;;2.30;2.10;;;23.90;96.80;;;;;;4946920;29;20954;-93
2023/08/08 09:50:10;;;;;;;5.10;2.17;;;23.90;96.90;;;;;;4931024;29;20496;-95
2023/08/08 09:52:41;;;;;;;1.83;1.70;;;23.90;97.00;;;;;;4949125;29;20461;-93
2023/08/08 09:55:22;;;;;;;3.10;2.20;;;23.90;96.80;;;;;;4961195;23;20443;-93
2023/08/08 09:57:55;;;;;;;2.37;2.27;;;23.90;97.00;;;;;;4989138;28;20514;-93
2023/08/08 10:00:25;;;;;;;2.33;2.07;;;23.90;96.90;;;;;;4989939;28;20468;-94
2023/08/08 10:03:28;;;;;;;3.03;2.70;;;23.90;96.80;;;;;;4988238;23;20521;-93
2023/08/08 10:06:03;;;;;;;2.40;2.20;;;23.90;97.00;;;;;;4975448;23;20577;-93
2023/08/08 10:08:31;;;;;;;2.27;2.07;;;23.90;96.90;;;;;;4968835;29;20437;-93
2023/08/08 10:10:59;;;;;;;2.60;1.70;;;23.90;96.90;;;;;;4968727;29;20454;-94
2023/08/08 10:13:32;;;;;;;2.23;1.90;;;23.90;96.80;;;;;;4967672;28;20534;-93
2023/08/08 10:19:11;;;;;;;3.60;2.27;;;23.90;97.00;;;;;;4966196;29;20503;-93
2023/08/08 10:32:52;;;;;;;2.03;1.83;;;23.80;97.00;;;;;;4949512;29;20406;-93
2023/08/08 10:35:24;;;;;;;2.43;1.80;;;23.80;97.00;;;;;;4957802;23;20470;-93
2023/08/08 10:41:06;;;;;;;1.90;1.80;;;23.80;97.00;;;;;;4970173;28;20422;-94
2023/08/08 10:43:36;;;;;;;1.80;1.70;;;23.80;97.00;;;;;;4972976;28;20449;-94
2023/08/08 10:46:06;;;;;;;2.33;2.13;;;23.80;97.00;;;;;;4970770;29;20430;-94
2023/08/08 10:48:52;;;;;;;1.93;1.80;;;23.80;97.00;;;;;;4972233;29;20508;-94
2023/08/08 10:51:45;;;;;;;1.80;1.70;;;23.80;96.90;;;;;;4980159;23;20563;-94
2023/08/08 10:54:28;;;;;;;2.30;2.10;;;23.80;97.00;;;;;;4968728;29;20440;-93
2023/08/08 10:57:23;;;;;;;1.90;1.67;;;23.80;97.30;;;;;;4981248;23;20533;-94
2023/08/08 11:02:31;;;;;;;2.43;1.73;;;23.80;97.20;;;;;;4934415;29;20479;-94
2023/08/08 11:08:03;;;;;;;1.80;1.70;;;23.80;97.00;;;;;;4977094;23;20496;-94
2023/08/08 11:10:37;;;;;;;2.93;2.00;;;23.80;97.20;;;;;;4993337;28;20419;-94
2023/08/08 11:13:06;;;;;;;2.57;1.80;;;23.80;97.30;;;;;;4992807;28;20565;-93
2023/08/08 11:15:48;;;;;;;2.27;2.07;;;23.70;97.20;;;;;;4993982;28;20453;-94
2023/08/08 11:18:20;;;;;;;2.10;1.90;;;23.70;97.10;;;;;;4993424;28;20472;-94
2023/08/08 11:20:59;;;;;;;2.80;1.80;;;23.70;97.00;;;;;;4993214;28;20441;-93
2023/08/08 11:23:34;;;;;;;1.77;1.67;;;23.60;96.90;;;;;;4990948;28;20846;-94
2023/08/08 11:26:10;;;;;;;2.43;2.00;;;23.70;97.00;;;;;;4991896;28;20444;-94
2023/08/08 11:28:38;;;;;;;4.23;2.10;;;23.80;97.10;;;;;;4989944;28;20980;-93
2023/08/08 11:31:13;;;;;;;1.70;1.60;;;23.70;97.10;;;;;;5011998;23;20838;-93
2023/08/08 11:33:42;;;;;;;1.57;1.47;;;23.80;97.20;;;;;;4988063;28;20447;-94
2023/08/08 11:36:22;;;;;;;1.80;1.50;;;23.80;97.20;;;;;;4991596;28;20442;-94
2023/08/08 11:41:48;;;;;;;1.80;1.50;;;23.80;97.00;;;;;;5078608;23;20583;-94
2023/08/08 11:44:20;;;;;;;1.90;1.60;;;23.80;96.90;;;;;;4991499;28;20432;-94
2023/08/08 11:46:50;;;;;;;1.60;1.50;;;23.80;96.90;;;;;;4989992;28;20434;-94
2023/08/08 11:49:21;;;;;;;2.20;2.00;;;23.80;97.10;;;;;;4995876;23;20497;-93
2023/08/08 11:51:57;;;;;;;2.43;1.60;;;23.80;97.00;;;;;;4990203;28;20491;-93
2023/08/08 11:54:29;;;;;;;1.70;1.50;;;23.80;97.10;;;;;;4989704;28;20441;-93
2023/08/08 11:57:01;;;;;;;1.40;1.27;;;23.80;96.80;;;;;;4988192;28;20532;-92
2023/08/08 11:59:29;;;;;;;1.70;1.60;;;23.80;96.80;;;;;;4987879;28;20480;-93
2023/08/08 12:01:58;;;;;;;2.30;1.60;;;23.80;96.80;;;;;;4987359;28;20505;-93
2023/08/08 12:04:30;;;;;;;2.23;1.70;;;23.80;96.80;;;;;;4967766;28;20441;-94
2023/08/08 12:07:05;;;;;;;1.83;1.73;;;23.80;96.90;;;;;;4986260;28;20935;-94
2023/08/08 12:09:35;;;;;;;1.50;1.40;;;23.80;96.70;;;;;;4986339;28;20475;-94
2023/08/08 12:12:14;;;;;;;1.50;1.40;;;23.80;96.80;;;;;;4986441;28;20474;-94
2023/08/08 12:14:50;;;;;;;1.63;1.53;;;23.80;96.80;;;;;;4993227;23;20489;-94
2023/08/08 12:17:23;;;;;;;2.10;1.90;;;23.80;97.10;;;;;;4984565;28;20461;-94
2023/08/08 12:20:00;;;;;;;1.73;1.63;;;23.90;96.80;;;;;;4993962;23;20596;-94
2023/08/08 12:22:30;;;;;;;2.23;1.70;;;23.90;96.80;;;;;;4992859;23;20504;-94
2023/08/08 12:25:05;;;;;;;2.70;1.87;;;23.90;96.70;;;;;;4985375;28;20476;-93
2023/08/08 12:27:35;;;;;;;1.50;1.40;;;23.90;96.80;;;;;;4983156;28;20460;-94
2023/08/08 12:30:13;;;;;;;2.00;1.80;;;23.90;96.70;;;;;;4984472;28;20476;-94
2023/08/08 12:32:43;;;;;;;2.20;1.43;;;24.00;96.80;;;;;;4986583;28;20450;-94
2023/08/08 12:35:11;;;;;;;2.33;1.60;;;24.00;96.80;;;;;;4983460;28;20440;-94
2023/08/08 12:38:26;;;;;;;2.50;1.67;;;24.00;96.80;;;;;;4983343;28;20507;-94
2023/08/08 12:40:56;;;;;;;3.20;1.70;;;24.00;96.80;;;;;;4985302;28;20443;-94
2023/08/08 12:43:34;;;;;;;2.00;1.80;;;24.00;96.90;;;;;;4986376;28;20943;-94
2023/08/08 12:46:11;;;;;;;1.60;1.50;;;24.00;96.90;;;;;;4987604;28;20515;-94
2023/08/08 12:48:41;;;;;;;1.70;1.60;;;24.10;97.20;;;;;;4984330;28;20445;-94
2023/08/08 12:51:10;;;;;;;1.67;1.57;;;24.00;96.80;;;;;;4982232;28;20487;-94
2023/08/08 12:53:38;;;;;;;1.80;1.70;;;24.10;96.90;;;;;;4980980;28;20447;-94
2023/08/08 12:56:09;;;;;;;1.70;1.43;;;24.10;97.00;;;;;;4982109;28;20478;-94
2023/08/08 12:58:37;;;;;;;2.63;1.20;;;24.10;96.90;;;;;;4981197;28;20481;-94
2023/08/08 13:01:04;;;;;;;2.30;2.10;;;24.10;96.80;;;;;;4979936;28;20446;-94
2023/08/08 13:03:33;;;;;;;1.50;1.40;;;24.10;96.70;;;;;;4982860;28;20800;-94
2023/08/08 13:06:01;;;;;;;1.80;1.30;;;24.10;96.80;;;;;;4983252;28;20474;-93
2023/08/08 13:08:28;;;;;;;1.63;1.53;;;24.00;96.80;;;;;;4984740;28;20453;-94
2023/08/08 13:13:26;;;;;;;1.47;1.37;;;24.10;96.80;;;;;;4988614;23;20549;-94
2023/08/08 13:15:53;;;;;;;1.50;1.33;;;24.10;96.80;;;;;;4985419;28;20254;-94
2023/08/08 13:18:21;;;;;;;1.70;1.60;;;24.10;96.80;;;;;;4982865;28;20512;-93
2023/08/08 13:20:48;;;;;;;1.60;1.50;;;24.10;96.80;;;;;;4982900;28;20505;-94
2023/08/08 13:23:32;;;;;;;1.57;1.47;;;24.10;96.90;;;;;;4967169;28;20453;-94
2023/08/08 13:26:04;;;;;;;1.60;1.40;;;24.10;96.80;;;;;;4984493;28;20930;-94
2023/08/08 13:28:38;;;;;;;1.60;1.50;;;24.10;96.70;;;;;;4985922;28;20538;-93
2023/08/08 13:31:07;;;;;;;1.60;1.50;;;24.10;96.70;;;;;;4991133;23;20491;-94
2023/08/08 13:33:36;;;;;;;1.40;1.30;;;24.10;96.80;;;;;;4991061;23;20503;-94
2023/08/08 13:36:07;;;;;;;1.63;1.53;;;24.10;96.70;;;;;;4985278;28;20486;-94
2023/08/08 13:38:36;;;;;;;1.23;1.10;;;24.10;96.70;;;;;;4984657;28;20516;-94
2023/08/08 13:41:19;;;;;;;1.73;1.30;;;24.10;96.70;;;;;;4985766;28;20454;-94
2023/08/08 13:43:53;;;;;;;2.07;1.57;;;24.10;96.70;;;;;;4985614;28;20524;-94
2023/08/08 13:46:35;;;;;;;1.60;1.40;;;24.10;96.70;;;;;;4986214;28;20818;-94
2023/08/08 13:49:03;;;;;;;1.30;1.20;;;24.10;96.70;;;;;;4984873;28;20939;-93
2023/08/08 13:51:32;;;;;;;1.53;1.43;;;24.10;96.80;;;;;;4984735;28;20866;-94